sensor_id;sensor_type;location;lat;lon;timestamp;P1;durP1;ratioP1;P2;durP2;ratioP2
12145;SDS011;6136;47.032;15.398;2024-02-26T00:01:37;3.97;;;3.30;;
12145;SDS011;6136;47.032;15.398;2024-02-26T00:04:05;4.70;;;3.67;;
12145;SDS011;6136;47.032;15.398;2024-02-26T00:06:33;4.93;;;3.53;;
12145;SDS011;6136;47.032;15.398;2024-02-26T00:09:01;7.97;;;3.83;;
12145;SDS011;6136;47.032;15.398;2024-02-26T00:11:35;5.23;;;3.70;;
12145;SDS011;6136;47.032;15.398;2024-02-26T00:14:03;4.37;;;3.50;;
12145;SDS011;6136;47.032;15.398;2024-02-26T00:16:31;5.73;;;3.83;;
12145;SDS011;6136;47.032;15.398;2024-02-26T00:18:59;4.63;;;3.33;;
12145;SDS011;6136;47.032;15.398;2024-02-26T00:21:27;6.80;;;4.17;;
12145;SDS011;6136;47.032;15.398;2024-02-26T00:23:55;5.37;;;3.87;;
12145;SDS011;6136;47.032;15.398;2024-02-26T00:26:22;8.57;;;3.97;;
12145;SDS011;6136;47.032;15.398;2024-02-26T00:28:52;5.43;;;3.60;;
12145;SDS011;6136;47.032;15.398;2024-02-26T00:31:20;5.17;;;3.90;;
12145;SDS011;6136;47.032;15.398;2024-02-26T00:33:47;6.73;;;3.77;;
12145;SDS011;6136;47.032;15.398;2024-02-26T00:36:16;5.40;;;3.63;;
12145;SDS011;6136;47.032;15.398;2024-02-26T00:38:45;5.83;;;3.90;;
12145;SDS011;6136;47.032;15.398;2024-02-26T00:41:17;4.20;;;3.60;;
12145;SDS011;6136;47.032;15.398;2024-02-26T00:43:45;7.40;;;3.80;;
12145;SDS011;6136;47.032;15.398;2024-02-26T00:46:15;7.70;;;4.20;;
12145;SDS011;6136;47.032;15.398;2024-02-26T00:48:43;5.07;;;4.17;;
12145;SDS011;6136;47.032;15.398;2024-02-26T00:51:11;4.27;;;3.87;;
12145;SDS011;6136;47.032;15.398;2024-02-26T00:53:39;5.00;;;3.90;;
12145;SDS011;6136;47.032;15.398;2024-02-26T00:56:07;6.70;;;3.50;;
12145;SDS011;6136;47.032;15.398;2024-02-26T00:58:35;5.53;;;3.90;;
12145;SDS011;6136;47.032;15.398;2024-02-26T01:01:03;4.30;;;3.90;;
12145;SDS011;6136;47.032;15.398;2024-02-26T01:03:32;5.83;;;4.00;;
12145;SDS011;6136;47.032;15.398;2024-02-26T01:06:01;8.17;;;4.03;;
12145;SDS011;6136;47.032;15.398;2024-02-26T01:08:29;3.97;;;3.40;;
12145;SDS011;6136;47.032;15.398;2024-02-26T01:10:58;5.80;;;3.67;;
12145;SDS011;6136;47.032;15.398;2024-02-26T01:13:26;6.03;;;3.87;;
12145;SDS011;6136;47.032;15.398;2024-02-26T01:15:54;6.57;;;3.80;;
12145;SDS011;6136;47.032;15.398;2024-02-26T01:18:22;5.33;;;3.57;;
12145;SDS011;6136;47.032;15.398;2024-02-26T01:20:51;4.90;;;3.53;;
12145;SDS011;6136;47.032;15.398;2024-02-26T01:23:21;5.53;;;4.00;;
12145;SDS011;6136;47.032;15.398;2024-02-26T01:25:49;4.03;;;3.50;;
12145;SDS011;6136;47.032;15.398;2024-02-26T01:28:17;5.63;;;3.63;;
12145;SDS011;6136;47.032;15.398;2024-02-26T01:30:45;5.97;;;3.60;;
12145;SDS011;6136;47.032;15.398;2024-02-26T01:33:13;6.20;;;3.50;;
12145;SDS011;6136;47.032;15.398;2024-02-26T01:35:41;4.07;;;3.50;;
12145;SDS011;6136;47.032;15.398;2024-02-26T01:38:11;3.73;;;3.30;;
12145;SDS011;6136;47.032;15.398;2024-02-26T01:40:39;5.67;;;3.87;;
12145;SDS011;6136;47.032;15.398;2024-02-26T01:43:07;6.20;;;3.90;;
12145;SDS011;6136;47.032;15.398;2024-02-26T01:45:35;5.20;;;3.63;;
12145;SDS011;6136;47.032;15.398;2024-02-26T01:48:03;8.43;;;3.50;;
12145;SDS011;6136;47.032;15.398;2024-02-26T01:50:31;7.27;;;4.40;;
12145;SDS011;6136;47.032;15.398;2024-02-26T01:53:01;9.23;;;3.93;;
12145;SDS011;6136;47.032;15.398;2024-02-26T01:55:30;3.83;;;3.33;;
12145;SDS011;6136;47.032;15.398;2024-02-26T01:57:58;4.43;;;3.60;;
12145;SDS011;6136;47.032;15.398;2024-02-26T02:00:26;4.20;;;3.50;;
12145;SDS011;6136;47.032;15.398;2024-02-26T02:02:55;5.33;;;3.73;;
12145;SDS011;6136;47.032;15.398;2024-02-26T02:05:23;4.40;;;3.30;;
12145;SDS011;6136;47.032;15.398;2024-02-26T02:07:51;5.73;;;3.43;;
12145;SDS011;6136;47.032;15.398;2024-02-26T02:10:19;4.67;;;3.20;;
12145;SDS011;6136;47.032;15.398;2024-02-26T02:12:51;4.37;;;3.50;;
12145;SDS011;6136;47.032;15.398;2024-02-26T02:15:19;5.77;;;4.33;;
12145;SDS011;6136;47.032;15.398;2024-02-26T02:17:48;6.23;;;4.37;;
12145;SDS011;6136;47.032;15.398;2024-02-26T02:20:17;5.83;;;4.07;;
12145;SDS011;6136;47.032;15.398;2024-02-26T02:22:47;7.80;;;4.17;;
12145;SDS011;6136;47.032;15.398;2024-02-26T02:25:15;4.37;;;3.93;;
12145;SDS011;6136;47.032;15.398;2024-02-26T02:27:43;5.10;;;4.20;;
12145;SDS011;6136;47.032;15.398;2024-02-26T02:30:11;4.47;;;3.77;;
12145;SDS011;6136;47.032;15.398;2024-02-26T02:32:39;5.73;;;4.43;;
12145;SDS011;6136;47.032;15.398;2024-02-26T02:35:08;4.67;;;4.13;;
12145;SDS011;6136;47.032;15.398;2024-02-26T02:37:36;4.87;;;4.37;;
12145;SDS011;6136;47.032;15.398;2024-02-26T02:40:07;6.87;;;4.40;;
12145;SDS011;6136;47.032;15.398;2024-02-26T02:42:35;6.37;;;4.10;;
12145;SDS011;6136;47.032;15.398;2024-02-26T02:45:03;5.33;;;3.60;;
12145;SDS011;6136;47.032;15.398;2024-02-26T02:47:31;4.83;;;4.03;;
12145;SDS011;6136;47.032;15.398;2024-02-26T02:49:59;4.10;;;3.70;;
12145;SDS011;6136;47.032;15.398;2024-02-26T02:52:27;6.63;;;4.33;;
12145;SDS011;6136;47.032;15.398;2024-02-26T02:54:55;5.77;;;3.90;;
12145;SDS011;6136;47.032;15.398;2024-02-26T02:57:24;6.43;;;4.30;;
12145;SDS011;6136;47.032;15.398;2024-02-26T02:59:52;5.23;;;4.27;;
12145;SDS011;6136;47.032;15.398;2024-02-26T03:02:20;4.83;;;4.33;;
12145;SDS011;6136;47.032;15.398;2024-02-26T03:04:50;4.23;;;3.30;;
12145;SDS011;6136;47.032;15.398;2024-02-26T03:07:18;4.20;;;3.40;;
12145;SDS011;6136;47.032;15.398;2024-02-26T03:09:46;4.10;;;3.70;;
12145;SDS011;6136;47.032;15.398;2024-02-26T03:12:14;4.73;;;3.67;;
12145;SDS011;6136;47.032;15.398;2024-02-26T03:14:44;5.37;;;3.80;;
12145;SDS011;6136;47.032;15.398;2024-02-26T03:17:13;4.80;;;3.57;;
12145;SDS011;6136;47.032;15.398;2024-02-26T03:19:41;4.97;;;3.83;;
12145;SDS011;6136;47.032;15.398;2024-02-26T03:22:09;4.07;;;3.67;;
12145;SDS011;6136;47.032;15.398;2024-02-26T03:24:37;4.93;;;3.50;;
12145;SDS011;6136;47.032;15.398;2024-02-26T03:27:05;4.20;;;3.80;;
12145;SDS011;6136;47.032;15.398;2024-02-26T03:29:36;5.97;;;3.80;;
12145;SDS011;6136;47.032;15.398;2024-02-26T03:32:06;3.93;;;3.57;;
12145;SDS011;6136;47.032;15.398;2024-02-26T03:34:34;5.10;;;3.47;;
12145;SDS011;6136;47.032;15.398;2024-02-26T03:37:02;4.73;;;3.67;;
12145;SDS011;6136;47.032;15.398;2024-02-26T03:39:30;4.17;;;3.73;;
12145;SDS011;6136;47.032;15.398;2024-02-26T03:41:58;5.23;;;3.90;;
12145;SDS011;6136;47.032;15.398;2024-02-26T03:44:26;5.00;;;3.50;;
12145;SDS011;6136;47.032;15.398;2024-02-26T03:46:54;6.57;;;3.57;;
12145;SDS011;6136;47.032;15.398;2024-02-26T03:49:24;6.43;;;4.20;;
12145;SDS011;6136;47.032;15.398;2024-02-26T03:51:52;3.80;;;3.40;;
12145;SDS011;6136;47.032;15.398;2024-02-26T03:54:20;4.23;;;3.57;;
12145;SDS011;6136;47.032;15.398;2024-02-26T03:56:48;4.23;;;3.40;;
12145;SDS011;6136;47.032;15.398;2024-02-26T03:59:16;5.50;;;3.80;;
12145;SDS011;6136;47.032;15.398;2024-02-26T04:01:46;4.60;;;3.67;;
12145;SDS011;6136;47.032;15.398;2024-02-26T04:04:15;8.17;;;4.27;;
12145;SDS011;6136;47.032;15.398;2024-02-26T04:06:45;7.43;;;4.10;;
12145;SDS011;6136;47.032;15.398;2024-02-26T04:09:14;8.07;;;4.30;;
12145;SDS011;6136;47.032;15.398;2024-02-26T04:11:42;6.70;;;3.57;;
12145;SDS011;6136;47.032;15.398;2024-02-26T04:14:11;4.80;;;3.83;;
12145;SDS011;6136;47.032;15.398;2024-02-26T04:16:39;4.60;;;3.83;;
12145;SDS011;6136;47.032;15.398;2024-02-26T04:19:08;5.60;;;3.73;;
12145;SDS011;6136;47.032;15.398;2024-02-26T04:21:36;4.43;;;4.03;;
12145;SDS011;6136;47.032;15.398;2024-02-26T04:24:06;7.77;;;4.30;;
12145;SDS011;6136;47.032;15.398;2024-02-26T04:26:34;6.40;;;4.37;;
12145;SDS011;6136;47.032;15.398;2024-02-26T04:29:02;4.43;;;3.43;;
12145;SDS011;6136;47.032;15.398;2024-02-26T04:31:30;6.23;;;3.87;;
12145;SDS011;6136;47.032;15.398;2024-02-26T04:33:59;10.10;;;4.87;;
12145;SDS011;6136;47.032;15.398;2024-02-26T04:36:27;10.00;;;5.37;;
12145;SDS011;6136;47.032;15.398;2024-02-26T04:38:55;9.37;;;4.73;;
12145;SDS011;6136;47.032;15.398;2024-02-26T04:41:25;8.37;;;6.07;;
12145;SDS011;6136;47.032;15.398;2024-02-26T04:43:53;8.83;;;4.90;;
12145;SDS011;6136;47.032;15.398;2024-02-26T04:46:21;4.97;;;4.47;;
12145;SDS011;6136;47.032;15.398;2024-02-26T04:48:49;11.27;;;5.63;;
12145;SDS011;6136;47.032;15.398;2024-02-26T04:51:20;7.50;;;5.10;;
12145;SDS011;6136;47.032;15.398;2024-02-26T04:53:48;8.37;;;5.87;;
12145;SDS011;6136;47.032;15.398;2024-02-26T04:56:16;7.40;;;5.57;;
12145;SDS011;6136;47.032;15.398;2024-02-26T04:58:45;8.27;;;5.43;;
12145;SDS011;6136;47.032;15.398;2024-02-26T05:01:13;10.47;;;6.27;;
12145;SDS011;6136;47.032;15.398;2024-02-26T05:03:42;10.17;;;6.10;;
12145;SDS011;6136;47.032;15.398;2024-02-26T05:06:10;8.43;;;5.63;;
12145;SDS011;6136;47.032;15.398;2024-02-26T05:08:39;10.77;;;6.17;;
12145;SDS011;6136;47.032;15.398;2024-02-26T05:11:07;10.03;;;5.67;;
12145;SDS011;6136;47.032;15.398;2024-02-26T05:13:35;8.20;;;5.43;;
12145;SDS011;6136;47.032;15.398;2024-02-26T05:16:05;9.03;;;5.53;;
12145;SDS011;6136;47.032;15.398;2024-02-26T05:18:33;11.40;;;4.80;;
12145;SDS011;6136;47.032;15.398;2024-02-26T05:21:01;7.87;;;4.93;;
12145;SDS011;6136;47.032;15.398;2024-02-26T05:23:30;6.83;;;4.43;;
12145;SDS011;6136;47.032;15.398;2024-02-26T05:25:59;8.37;;;5.00;;
12145;SDS011;6136;47.032;15.398;2024-02-26T05:28:27;7.17;;;4.70;;
12145;SDS011;6136;47.032;15.398;2024-02-26T05:30:55;7.90;;;4.37;;
12145;SDS011;6136;47.032;15.398;2024-02-26T05:33:24;6.77;;;4.77;;
12145;SDS011;6136;47.032;15.398;2024-02-26T05:35:52;5.60;;;4.37;;
12145;SDS011;6136;47.032;15.398;2024-02-26T05:38:20;11.17;;;5.10;;
12145;SDS011;6136;47.032;15.398;2024-02-26T05:40:48;10.17;;;5.40;;
12145;SDS011;6136;47.032;15.398;2024-02-26T05:43:18;6.93;;;4.37;;
12145;SDS011;6136;47.032;15.398;2024-02-26T05:45:46;6.77;;;4.90;;
12145;SDS011;6136;47.032;15.398;2024-02-26T05:48:14;5.90;;;4.87;;
12145;SDS011;6136;47.032;15.398;2024-02-26T05:50:44;9.33;;;5.00;;
12145;SDS011;6136;47.032;15.398;2024-02-26T05:53:12;6.67;;;4.47;;
12145;SDS011;6136;47.032;15.398;2024-02-26T05:55:40;7.63;;;5.20;;
12145;SDS011;6136;47.032;15.398;2024-02-26T05:58:08;11.60;;;4.80;;
12145;SDS011;6136;47.032;15.398;2024-02-26T06:00:36;11.57;;;5.40;;
12145;SDS011;6136;47.032;15.398;2024-02-26T06:03:05;6.33;;;4.93;;
12145;SDS011;6136;47.032;15.398;2024-02-26T06:05:33;7.87;;;5.23;;
12145;SDS011;6136;47.032;15.398;2024-02-26T06:08:03;8.03;;;5.60;;
12145;SDS011;6136;47.032;15.398;2024-02-26T06:10:31;8.60;;;5.30;;
12145;SDS011;6136;47.032;15.398;2024-02-26T06:12:59;8.27;;;5.47;;
12145;SDS011;6136;47.032;15.398;2024-02-26T06:15:27;12.37;;;7.13;;
12145;SDS011;6136;47.032;15.398;2024-02-26T06:17:56;6.63;;;5.67;;
12145;SDS011;6136;47.032;15.398;2024-02-26T06:20:24;11.67;;;6.30;;
12145;SDS011;6136;47.032;15.398;2024-02-26T06:22:52;9.53;;;6.30;;
12145;SDS011;6136;47.032;15.398;2024-02-26T06:25:21;7.57;;;5.63;;
12145;SDS011;6136;47.032;15.398;2024-02-26T06:27:49;9.77;;;5.80;;
12145;SDS011;6136;47.032;15.398;2024-02-26T06:30:17;10.20;;;6.33;;
12145;SDS011;6136;47.032;15.398;2024-02-26T06:32:45;13.67;;;7.87;;
12145;SDS011;6136;47.032;15.398;2024-02-26T06:35:13;12.83;;;7.83;;
12145;SDS011;6136;47.032;15.398;2024-02-26T06:37:41;13.90;;;7.50;;
12145;SDS011;6136;47.032;15.398;2024-02-26T06:40:09;17.17;;;8.67;;
12145;SDS011;6136;47.032;15.398;2024-02-26T06:42:39;13.13;;;7.83;;
12145;SDS011;6136;47.032;15.398;2024-02-26T06:45:07;10.87;;;7.37;;
12145;SDS011;6136;47.032;15.398;2024-02-26T06:47:35;11.90;;;7.30;;
12145;SDS011;6136;47.032;15.398;2024-02-26T06:50:03;15.97;;;7.00;;
12145;SDS011;6136;47.032;15.398;2024-02-26T06:52:31;10.77;;;6.83;;
12145;SDS011;6136;47.032;15.398;2024-02-26T06:54:59;11.57;;;6.27;;
12145;SDS011;6136;47.032;15.398;2024-02-26T06:57:28;8.60;;;5.87;;
12145;SDS011;6136;47.032;15.398;2024-02-26T06:59:57;9.87;;;5.43;;
12145;SDS011;6136;47.032;15.398;2024-02-26T07:02:26;8.20;;;5.77;;
12145;SDS011;6136;47.032;15.398;2024-02-26T07:04:54;9.33;;;4.67;;
12145;SDS011;6136;47.032;15.398;2024-02-26T07:07:22;6.93;;;5.17;;
12145;SDS011;6136;47.032;15.398;2024-02-26T07:09:50;11.43;;;5.03;;
12145;SDS011;6136;47.032;15.398;2024-02-26T07:12:18;10.50;;;4.83;;
12145;SDS011;6136;47.032;15.398;2024-02-26T07:14:48;6.07;;;4.13;;
12145;SDS011;6136;47.032;15.398;2024-02-26T07:17:18;7.00;;;4.67;;
12145;SDS011;6136;47.032;15.398;2024-02-26T07:19:46;7.03;;;4.60;;
12145;SDS011;6136;47.032;15.398;2024-02-26T07:22:14;9.10;;;5.53;;
12145;SDS011;6136;47.032;15.398;2024-02-26T07:24:42;6.53;;;4.70;;
12145;SDS011;6136;47.032;15.398;2024-02-26T07:27:10;7.53;;;4.70;;
12145;SDS011;6136;47.032;15.398;2024-02-26T07:29:38;6.43;;;4.53;;
12145;SDS011;6136;47.032;15.398;2024-02-26T07:32:06;14.47;;;4.60;;
12145;SDS011;6136;47.032;15.398;2024-02-26T07:34:35;7.23;;;4.50;;
12145;SDS011;6136;47.032;15.398;2024-02-26T07:37:05;11.80;;;4.90;;
12145;SDS011;6136;47.032;15.398;2024-02-26T07:39:33;9.97;;;4.33;;
12145;SDS011;6136;47.032;15.398;2024-02-26T07:42:02;5.43;;;4.43;;
12145;SDS011;6136;47.032;15.398;2024-02-26T07:44:30;7.73;;;5.13;;
12145;SDS011;6136;47.032;15.398;2024-02-26T07:46:58;8.47;;;5.23;;
12145;SDS011;6136;47.032;15.398;2024-02-26T07:49:26;13.63;;;5.13;;
12145;SDS011;6136;47.032;15.398;2024-02-26T07:51:55;7.80;;;5.07;;
12145;SDS011;6136;47.032;15.398;2024-02-26T07:54:24;7.87;;;4.40;;
12145;SDS011;6136;47.032;15.398;2024-02-26T07:56:52;6.73;;;5.07;;
12145;SDS011;6136;47.032;15.398;2024-02-26T07:59:21;6.90;;;4.53;;
12145;SDS011;6136;47.032;15.398;2024-02-26T08:01:49;9.23;;;5.03;;
12145;SDS011;6136;47.032;15.398;2024-02-26T08:04:22;8.37;;;5.70;;
12145;SDS011;6136;47.032;15.398;2024-02-26T08:06:51;13.33;;;6.10;;
12145;SDS011;6136;47.032;15.398;2024-02-26T08:09:20;11.37;;;6.67;;
12145;SDS011;6136;47.032;15.398;2024-02-26T08:11:48;12.13;;;6.93;;
12145;SDS011;6136;47.032;15.398;2024-02-26T08:14:16;8.03;;;5.17;;
12145;SDS011;6136;47.032;15.398;2024-02-26T08:16:44;10.90;;;4.77;;
12145;SDS011;6136;47.032;15.398;2024-02-26T08:19:12;5.57;;;4.10;;
12145;SDS011;6136;47.032;15.398;2024-02-26T08:21:41;4.17;;;3.10;;
12145;SDS011;6136;47.032;15.398;2024-02-26T08:24:09;7.40;;;3.40;;
12145;SDS011;6136;47.032;15.398;2024-02-26T08:26:39;6.67;;;4.47;;
12145;SDS011;6136;47.032;15.398;2024-02-26T08:29:07;5.90;;;4.38;;
12145;SDS011;6136;47.032;15.398;2024-02-26T08:31:35;3.88;;;3.40;;
12145;SDS011;6136;47.032;15.398;2024-02-26T08:34:04;6.05;;;3.85;;
12145;SDS011;6136;47.032;15.398;2024-02-26T08:36:33;4.28;;;2.67;;
12145;SDS011;6136;47.032;15.398;2024-02-26T08:39:01;5.05;;;3.55;;
12145;SDS011;6136;47.032;15.398;2024-02-26T08:41:30;4.30;;;3.28;;
12145;SDS011;6136;47.032;15.398;2024-02-26T08:43:59;4.30;;;3.40;;
12145;SDS011;6136;47.032;15.398;2024-02-26T08:46:27;4.97;;;3.63;;
12145;SDS011;6136;47.032;15.398;2024-02-26T08:48:55;5.65;;;3.40;;
12145;SDS011;6136;47.032;15.398;2024-02-26T08:51:23;4.85;;;3.63;;
12145;SDS011;6136;47.032;15.398;2024-02-26T08:53:51;5.10;;;3.42;;
12145;SDS011;6136;47.032;15.398;2024-02-26T08:56:20;6.60;;;4.35;;
12145;SDS011;6136;47.032;15.398;2024-02-26T08:58:48;8.10;;;3.50;;
12145;SDS011;6136;47.032;15.398;2024-02-26T09:01:21;5.53;;;3.33;;
12145;SDS011;6136;47.032;15.398;2024-02-26T09:03:50;4.72;;;3.10;;
12145;SDS011;6136;47.032;15.398;2024-02-26T09:06:18;3.28;;;2.95;;
12145;SDS011;6136;47.032;15.398;2024-02-26T09:08:46;3.95;;;2.85;;
12145;SDS011;6136;47.032;15.398;2024-02-26T09:11:14;4.57;;;3.40;;
12145;SDS011;6136;47.032;15.398;2024-02-26T09:13:42;4.35;;;3.92;;
12145;SDS011;6136;47.032;15.398;2024-02-26T09:16:11;4.60;;;3.92;;
12145;SDS011;6136;47.032;15.398;2024-02-26T09:18:40;5.72;;;3.70;;
12145;SDS011;6136;47.032;15.398;2024-02-26T09:21:09;7.15;;;4.00;;
12145;SDS011;6136;47.032;15.398;2024-02-26T09:23:37;5.85;;;3.63;;
12145;SDS011;6136;47.032;15.398;2024-02-26T09:26:05;10.40;;;3.78;;
12145;SDS011;6136;47.032;15.398;2024-02-26T09:28:33;6.68;;;4.05;;
12145;SDS011;6136;47.032;15.398;2024-02-26T09:31:04;4.85;;;3.83;;
12145;SDS011;6136;47.032;15.398;2024-02-26T09:33:32;5.68;;;4.00;;
12145;SDS011;6136;47.032;15.398;2024-02-26T09:36:03;5.22;;;4.25;;
12145;SDS011;6136;47.032;15.398;2024-02-26T09:38:33;5.60;;;4.05;;
12145;SDS011;6136;47.032;15.398;2024-02-26T09:41:21;3.55;;;3.03;;
12145;SDS011;6136;47.032;15.398;2024-02-26T09:43:49;5.57;;;3.45;;
12145;SDS011;6136;47.032;15.398;2024-02-26T09:46:20;4.43;;;3.58;;
12145;SDS011;6136;47.032;15.398;2024-02-26T09:48:47;4.65;;;3.50;;
12145;SDS011;6136;47.032;15.398;2024-02-26T09:51:17;4.72;;;3.40;;
12145;SDS011;6136;47.032;15.398;2024-02-26T09:53:46;5.60;;;3.17;;
12145;SDS011;6136;47.032;15.398;2024-02-26T09:56:14;6.28;;;3.08;;
12145;SDS011;6136;47.032;15.398;2024-02-26T09:58:43;5.45;;;3.38;;
12145;SDS011;6136;47.032;15.398;2024-02-26T10:01:13;5.30;;;3.90;;
12145;SDS011;6136;47.032;15.398;2024-02-26T10:03:41;5.80;;;3.47;;
12145;SDS011;6136;47.032;15.398;2024-02-26T10:06:11;7.50;;;3.72;;
12145;SDS011;6136;47.032;15.398;2024-02-26T10:08:41;4.90;;;3.55;;
12145;SDS011;6136;47.032;15.398;2024-02-26T10:11:10;5.38;;;3.58;;
12145;SDS011;6136;47.032;15.398;2024-02-26T10:13:38;3.58;;;2.75;;
12145;SDS011;6136;47.032;15.398;2024-02-26T10:16:06;6.00;;;3.78;;
12145;SDS011;6136;47.032;15.398;2024-02-26T10:18:47;7.03;;;3.70;;
12145;SDS011;6136;47.032;15.398;2024-02-26T10:21:18;5.10;;;2.85;;
12145;SDS011;6136;47.032;15.398;2024-02-26T10:23:48;3.67;;;2.95;;
12145;SDS011;6136;47.032;15.398;2024-02-26T10:26:17;5.75;;;3.03;;
12145;SDS011;6136;47.032;15.398;2024-02-26T10:28:45;4.93;;;3.05;;
12145;SDS011;6136;47.032;15.398;2024-02-26T10:31:17;6.28;;;3.42;;
12145;SDS011;6136;47.032;15.398;2024-02-26T10:33:46;5.75;;;3.40;;
12145;SDS011;6136;47.032;15.398;2024-02-26T10:36:14;4.35;;;3.05;;
12145;SDS011;6136;47.032;15.398;2024-02-26T10:38:42;4.05;;;2.50;;
12145;SDS011;6136;47.032;15.398;2024-02-26T10:41:14;5.45;;;3.03;;
12145;SDS011;6136;47.032;15.398;2024-02-26T10:43:42;2.58;;;2.35;;
12145;SDS011;6136;47.032;15.398;2024-02-26T10:46:11;2.53;;;2.25;;
12145;SDS011;6136;47.032;15.398;2024-02-26T10:48:39;3.75;;;2.65;;
12145;SDS011;6136;47.032;15.398;2024-02-26T10:51:07;4.75;;;2.67;;
12145;SDS011;6136;47.032;15.398;2024-02-26T10:53:37;7.40;;;3.38;;
12145;SDS011;6136;47.032;15.398;2024-02-26T10:56:06;2.78;;;2.38;;
12145;SDS011;6136;47.032;15.398;2024-02-26T10:58:35;3.50;;;2.67;;
12145;SDS011;6136;47.032;15.398;2024-02-26T11:01:04;2.58;;;2.30;;
12145;SDS011;6136;47.032;15.398;2024-02-26T11:03:32;2.55;;;2.35;;
12145;SDS011;6136;47.032;15.398;2024-02-26T11:06:02;3.30;;;2.40;;
12145;SDS011;6136;47.032;15.398;2024-02-26T11:08:31;2.90;;;2.45;;
12145;SDS011;6136;47.032;15.398;2024-02-26T11:11:00;3.35;;;2.40;;
12145;SDS011;6136;47.032;15.398;2024-02-26T11:13:29;3.22;;;1.90;;
12145;SDS011;6136;47.032;15.398;2024-02-26T11:16:04;2.78;;;2.10;;
12145;SDS011;6136;47.032;15.398;2024-02-26T11:18:33;3.90;;;2.28;;
12145;SDS011;6136;47.032;15.398;2024-02-26T11:21:02;2.53;;;1.83;;
12145;SDS011;6136;47.032;15.398;2024-02-26T11:23:31;1.83;;;1.60;;
12145;SDS011;6136;47.032;15.398;2024-02-26T11:26:03;2.72;;;1.80;;
12145;SDS011;6136;47.032;15.398;2024-02-26T11:28:32;1.98;;;1.80;;
12145;SDS011;6136;47.032;15.398;2024-02-26T11:31:00;2.30;;;1.75;;
12145;SDS011;6136;47.032;15.398;2024-02-26T11:33:30;1.67;;;1.58;;
12145;SDS011;6136;47.032;15.398;2024-02-26T11:35:58;3.55;;;1.70;;
12145;SDS011;6136;47.032;15.398;2024-02-26T11:38:26;1.92;;;1.67;;
12145;SDS011;6136;47.032;15.398;2024-02-26T11:40:54;2.28;;;1.75;;
12145;SDS011;6136;47.032;15.398;2024-02-26T11:43:23;3.47;;;1.80;;
12145;SDS011;6136;47.032;15.398;2024-02-26T11:45:51;2.42;;;1.98;;
12145;SDS011;6136;47.032;15.398;2024-02-26T11:48:25;2.92;;;1.80;;
12145;SDS011;6136;47.032;15.398;2024-02-26T11:50:57;2.08;;;1.83;;
12145;SDS011;6136;47.032;15.398;2024-02-26T11:53:26;2.88;;;2.00;;
12145;SDS011;6136;47.032;15.398;2024-02-26T11:58:41;2.55;;;2.03;;
12145;SDS011;6136;47.032;15.398;2024-02-26T12:03:53;2.00;;;1.75;;
12145;SDS011;6136;47.032;15.398;2024-02-26T12:06:23;2.95;;;1.77;;
12145;SDS011;6136;47.032;15.398;2024-02-26T12:08:52;2.80;;;1.90;;
12145;SDS011;6136;47.032;15.398;2024-02-26T12:11:20;4.00;;;2.10;;
12145;SDS011;6136;47.032;15.398;2024-02-26T12:13:48;2.10;;;1.80;;
12145;SDS011;6136;47.032;15.398;2024-02-26T12:19:00;5.80;;;2.25;;
12145;SDS011;6136;47.032;15.398;2024-02-26T12:21:30;2.95;;;2.65;;
12145;SDS011;6136;47.032;15.398;2024-02-26T12:24:06;5.63;;;1.95;;
12145;SDS011;6136;47.032;15.398;2024-02-26T12:26:34;2.35;;;1.70;;
12145;SDS011;6136;47.032;15.398;2024-02-26T12:29:02;4.07;;;1.77;;
12145;SDS011;6136;47.032;15.398;2024-02-26T12:31:30;2.60;;;2.20;;
12145;SDS011;6136;47.032;15.398;2024-02-26T12:33:59;2.75;;;1.85;;
12145;SDS011;6136;47.032;15.398;2024-02-26T12:36:27;2.38;;;1.90;;
12145;SDS011;6136;47.032;15.398;2024-02-26T12:38:57;2.63;;;1.70;;
12145;SDS011;6136;47.032;15.398;2024-02-26T12:41:25;2.20;;;1.67;;
12145;SDS011;6136;47.032;15.398;2024-02-26T12:43:54;1.77;;;1.67;;
12145;SDS011;6136;47.032;15.398;2024-02-26T12:46:22;2.40;;;1.90;;
12145;SDS011;6136;47.032;15.398;2024-02-26T12:48:50;4.35;;;1.88;;
12145;SDS011;6136;47.032;15.398;2024-02-26T12:51:21;2.42;;;1.90;;
12145;SDS011;6136;47.032;15.398;2024-02-26T12:53:49;3.28;;;2.45;;
12145;SDS011;6136;47.032;15.398;2024-02-26T12:56:20;5.85;;;2.25;;
12145;SDS011;6136;47.032;15.398;2024-02-26T12:58:49;1.98;;;1.77;;
12145;SDS011;6136;47.032;15.398;2024-02-26T13:01:19;3.03;;;1.95;;
12145;SDS011;6136;47.032;15.398;2024-02-26T13:03:47;4.55;;;2.00;;
12145;SDS011;6136;47.032;15.398;2024-02-26T13:06:16;1.80;;;1.60;;
12145;SDS011;6136;47.032;15.398;2024-02-26T13:08:45;2.15;;;1.60;;
12145;SDS011;6136;47.032;15.398;2024-02-26T13:11:13;2.33;;;1.70;;
12145;SDS011;6136;47.032;15.398;2024-02-26T13:13:47;2.60;;;1.75;;
12145;SDS011;6136;47.032;15.398;2024-02-26T13:16:15;1.63;;;1.52;;
12145;SDS011;6136;47.032;15.398;2024-02-26T13:18:43;3.50;;;2.20;;
12145;SDS011;6136;47.032;15.398;2024-02-26T13:21:12;2.08;;;1.60;;
12145;SDS011;6136;47.032;15.398;2024-02-26T13:23:40;4.35;;;1.92;;
12145;SDS011;6136;47.032;15.398;2024-02-26T13:26:08;1.80;;;1.70;;
12145;SDS011;6136;47.032;15.398;2024-02-26T13:28:39;2.90;;;1.63;;
12145;SDS011;6136;47.032;15.398;2024-02-26T13:31:08;2.20;;;1.70;;
12145;SDS011;6136;47.032;15.398;2024-02-26T13:33:36;3.58;;;1.90;;
12145;SDS011;6136;47.032;15.398;2024-02-26T13:36:04;3.35;;;1.98;;
12145;SDS011;6136;47.032;15.398;2024-02-26T13:38:33;1.65;;;1.55;;
12145;SDS011;6136;47.032;15.398;2024-02-26T13:41:00;1.45;;;1.35;;
12145;SDS011;6136;47.032;15.398;2024-02-26T13:43:28;1.58;;;1.48;;
12145;SDS011;6136;47.032;15.398;2024-02-26T13:45:56;1.23;;;1.13;;
12145;SDS011;6136;47.032;15.398;2024-02-26T13:48:26;2.20;;;1.80;;
12145;SDS011;6136;47.032;15.398;2024-02-26T13:50:54;1.20;;;1.10;;
12145;SDS011;6136;47.032;15.398;2024-02-26T13:53:22;1.92;;;1.83;;
12145;SDS011;6136;47.032;15.398;2024-02-26T13:55:50;8.40;;;1.95;;
12145;SDS011;6136;47.032;15.398;2024-02-26T13:58:18;3.20;;;1.50;;
12145;SDS011;6136;47.032;15.398;2024-02-26T14:00:50;2.72;;;1.65;;
12145;SDS011;6136;47.032;15.398;2024-02-26T14:03:18;3.05;;;1.55;;
12145;SDS011;6136;47.032;15.398;2024-02-26T14:05:48;1.70;;;1.30;;
12145;SDS011;6136;47.032;15.398;2024-02-26T14:08:16;2.93;;;1.23;;
12145;SDS011;6136;47.032;15.398;2024-02-26T14:10:44;1.30;;;1.20;;
12145;SDS011;6136;47.032;15.398;2024-02-26T14:13:12;1.83;;;1.30;;
12145;SDS011;6136;47.032;15.398;2024-02-26T14:15:40;4.10;;;1.40;;
12145;SDS011;6136;47.032;15.398;2024-02-26T14:18:08;1.30;;;1.20;;
12145;SDS011;6136;47.032;15.398;2024-02-26T14:20:37;4.10;;;1.40;;
12145;SDS011;6136;47.032;15.398;2024-02-26T14:23:06;2.60;;;2.40;;
12145;SDS011;6136;47.032;15.398;2024-02-26T14:25:35;3.47;;;1.77;;
12145;SDS011;6136;47.032;15.398;2024-02-26T14:28:03;1.50;;;1.40;;
12145;SDS011;6136;47.032;15.398;2024-02-26T14:30:31;1.30;;;1.20;;
12145;SDS011;6136;47.032;15.398;2024-02-26T14:32:59;2.20;;;1.50;;
12145;SDS011;6136;47.032;15.398;2024-02-26T14:35:27;1.20;;;1.10;;
12145;SDS011;6136;47.032;15.398;2024-02-26T14:37:55;1.23;;;1.13;;
12145;SDS011;6136;47.032;15.398;2024-02-26T14:40:28;1.40;;;1.30;;
12145;SDS011;6136;47.032;15.398;2024-02-26T14:42:57;2.03;;;1.20;;
12145;SDS011;6136;47.032;15.398;2024-02-26T14:45:26;2.83;;;1.27;;
12145;SDS011;6136;47.032;15.398;2024-02-26T14:47:54;2.13;;;1.10;;
12145;SDS011;6136;47.032;15.398;2024-02-26T14:50:22;1.83;;;1.30;;
12145;SDS011;6136;47.032;15.398;2024-02-26T14:52:50;1.40;;;1.30;;
12145;SDS011;6136;47.032;15.398;2024-02-26T14:55:18;3.67;;;1.63;;
12145;SDS011;6136;47.032;15.398;2024-02-26T14:57:47;1.57;;;1.47;;
12145;SDS011;6136;47.032;15.398;2024-02-26T15:00:16;1.53;;;1.23;;
12145;SDS011;6136;47.032;15.398;2024-02-26T15:02:44;1.87;;;1.20;;